createdAt,value
2019-05-06T00:00:37.977Z,20.25
2019-05-06T00:03:08.371Z,20.20
2019-05-06T00:05:38.584Z,16.27
2019-05-06T00:08:08.900Z,17.37
2019-05-06T00:10:39.542Z,17.80
2019-05-06T00:13:09.962Z,23.53
2019-05-06T00:15:40.366Z,15.72
2019-05-06T00:18:10.645Z,17.45
2019-05-06T00:20:41.039Z,18.50
2019-05-06T00:23:14.245Z,17.85
2019-05-06T00:25:45.742Z,25.95
2019-05-06T00:28:17.479Z,16.00
2019-05-06T00:30:49.069Z,23.40
2019-05-06T00:33:19.626Z,18.40
2019-05-06T00:35:49.960Z,44.97
2019-05-06T00:38:20.166Z,20.55
2019-05-06T00:40:51.668Z,17.05
2019-05-06T00:43:23.619Z,19.50
2019-05-06T00:45:53.760Z,18.77
2019-05-06T00:48:24.432Z,18.27
2019-05-06T00:50:55.142Z,19.90
2019-05-06T00:53:26.861Z,21.17
2019-05-06T00:55:57.449Z,21.25
2019-05-06T00:58:27.889Z,16.67
2019-05-06T01:00:58.164Z,16.35
2019-05-06T01:03:29.787Z,17.90
2019-05-06T01:06:00.100Z,20.40
2019-05-06T01:08:30.717Z,24.90
2019-05-06T01:11:03.889Z,19.27
2019-05-06T01:13:35.127Z,19.23
2019-05-06T01:16:05.634Z,16.75
2019-05-06T01:18:36.064Z,20.23
2019-05-06T01:21:07.603Z,21.05
2019-05-06T01:23:37.980Z,22.55
2019-05-06T01:26:08.298Z,19.75
2019-05-06T01:28:38.765Z,20.55
2019-05-06T01:31:09.354Z,17.73
2019-05-06T01:33:39.863Z,18.17
2019-05-06T01:36:09.950Z,23.60
2019-05-06T01:38:41.538Z,19.80
2019-05-06T01:41:13.606Z,22.17
2019-05-06T01:43:45.143Z,18.80
2019-05-06T01:46:16.022Z,18.83
2019-05-06T01:48:47.576Z,20.27
2019-05-06T01:51:19.522Z,17.80
2019-05-06T01:53:50.831Z,24.12
2019-05-06T01:56:21.250Z,21.48
2019-05-06T01:58:53.456Z,17.40
2019-05-06T02:01:25.051Z,18.57
2019-05-06T02:03:55.115Z,17.67
2019-05-06T02:06:25.656Z,17.97
2019-05-06T02:08:56.047Z,18.20
2019-05-06T02:11:26.344Z,16.10
2019-05-06T02:13:56.989Z,18.48
2019-05-06T02:16:27.189Z,17.23
2019-05-06T02:18:57.648Z,17.92
2019-05-06T02:21:29.270Z,17.45
2019-05-06T02:24:00.842Z,23.10
2019-05-06T02:26:31.221Z,20.85
2019-05-06T02:29:04.272Z,19.40
2019-05-06T02:31:35.805Z,20.40
2019-05-06T02:34:07.471Z,20.62
2019-05-06T02:36:39.753Z,21.33
2019-05-06T02:39:10.291Z,21.17
2019-05-06T02:41:42.814Z,19.12
2019-05-06T02:44:13.711Z,20.48
2019-05-06T02:46:45.597Z,20.97
2019-05-06T02:49:17.364Z,19.80
2019-05-06T02:51:48.311Z,18.70
2019-05-06T02:54:18.560Z,19.63
2019-05-06T02:56:49.192Z,20.40
2019-05-06T02:59:19.424Z,22.17
2019-05-06T03:01:49.627Z,19.40
2019-05-06T03:04:20.259Z,25.30
2019-05-06T03:06:52.976Z,17.25
2019-05-06T03:09:23.312Z,17.50
2019-05-06T03:11:54.208Z,19.65
2019-05-06T03:14:24.697Z,17.65
2019-05-06T03:16:55.154Z,16.30
2019-05-06T03:19:26.475Z,18.95
2019-05-06T03:21:58.282Z,20.95
2019-05-06T03:24:32.950Z,20.97
2019-05-06T03:27:04.629Z,19.23
2019-05-06T03:29:33.531Z,19.05
2019-05-06T03:32:07.005Z,23.00
2019-05-06T03:34:58.718Z,18.25
2019-05-06T03:37:08.393Z,15.45
2019-05-06T03:39:39.034Z,21.77
2019-05-06T03:42:09.147Z,17.90
2019-05-06T03:44:43.443Z,21.02
2019-05-06T03:47:13.958Z,22.70
2019-05-06T03:49:49.777Z,19.90
2019-05-06T03:52:17.926Z,19.95
2019-05-06T03:54:48.886Z,20.35
2019-05-06T03:57:22.897Z,21.15
2019-05-06T03:59:53.048Z,18.52
2019-05-06T04:02:24.248Z,18.73
2019-05-06T04:04:56.858Z,19.95
2019-05-06T04:07:27.187Z,17.82
2019-05-06T04:09:57.418Z,19.07
2019-05-06T04:12:29.157Z,19.35
2019-05-06T04:14:59.673Z,20.50
2019-05-06T04:17:32.911Z,20.15
2019-05-06T04:20:05.789Z,21.73
2019-05-06T04:22:38.170Z,19.92
2019-05-06T04:25:09.883Z,18.97
2019-05-06T04:27:43.340Z,22.35
2019-05-06T04:30:13.957Z,21.93
2019-05-06T04:32:44.668Z,18.50
2019-05-06T04:35:14.947Z,17.62
2019-05-06T04:37:45.350Z,18.10
2019-05-06T04:40:16.059Z,21.45
2019-05-06T04:42:46.362Z,23.30
2019-05-06T04:45:17.435Z,19.87
2019-05-06T04:47:48.061Z,22.10
2019-05-06T04:50:18.412Z,21.12
2019-05-06T04:52:49.885Z,20.17
2019-05-06T04:55:22.529Z,23.27
2019-05-06T04:57:53.565Z,20.25
2019-05-06T05:00:24.000Z,21.70
2019-05-06T05:02:54.971Z,20.75
2019-05-06T05:05:26.376Z,25.17
2019-05-06T05:07:56.776Z,28.32
2019-05-06T05:10:28.398Z,21.00
2019-05-06T05:13:03.373Z,21.07
2019-05-06T05:15:33.820Z,24.35
2019-05-06T05:18:05.591Z,21.00
2019-05-06T05:20:39.705Z,23.32
2019-05-06T05:23:08.352Z,22.82
2019-05-06T05:25:39.612Z,21.00
2019-05-06T05:28:09.901Z,20.05
2019-05-06T05:30:42.781Z,24.33
2019-05-06T05:33:12.467Z,24.15
2019-05-06T05:35:43.324Z,22.77
2019-05-06T05:38:13.922Z,19.15
2019-05-06T05:40:44.761Z,24.43
2019-05-06T05:43:16.346Z,21.10
2019-05-06T05:45:46.783Z,20.50
2019-05-06T05:48:18.757Z,22.52
2019-05-06T05:50:49.034Z,22.22
2019-05-06T05:53:19.477Z,19.23
2019-05-06T05:55:49.818Z,23.67
2019-05-06T05:58:24.512Z,18.67
2019-05-06T06:00:52.764Z,21.93
2019-05-06T06:03:23.106Z,21.25
2019-05-06T06:05:53.467Z,18.65
2019-05-06T06:08:24.815Z,23.00
2019-05-06T06:10:56.719Z,18.35
2019-05-06T06:13:27.299Z,20.27
2019-05-06T06:15:59.057Z,20.50
2019-05-06T06:18:33.230Z,20.50
2019-05-06T06:21:17.737Z,22.23
2019-05-06T06:23:37.455Z,22.20
2019-05-06T06:26:08.301Z,20.27
2019-05-06T06:28:38.520Z,23.77
2019-05-06T06:31:12.036Z,19.32
2019-05-06T06:33:42.862Z,22.62
2019-05-06T06:36:14.651Z,15.10
2019-05-06T06:38:46.492Z,16.35
2019-05-06T06:41:16.816Z,16.23
2019-05-06T06:43:49.054Z,18.42
2019-05-06T06:46:19.546Z,16.27
2019-05-06T06:48:52.605Z,17.92
2019-05-06T06:51:23.373Z,17.80
2019-05-06T06:53:53.453Z,21.80
2019-05-06T06:56:25.497Z,17.37
2019-05-06T06:58:58.233Z,17.65
2019-05-06T07:01:29.934Z,15.45
2019-05-06T07:04:06.765Z,15.93
2019-05-06T07:06:35.128Z,14.58
2019-05-06T07:09:06.984Z,18.03
2019-05-06T07:11:37.928Z,13.90
2019-05-06T07:14:08.509Z,16.75
2019-05-06T07:16:38.807Z,15.03
2019-05-06T07:19:09.312Z,16.90
2019-05-06T07:21:43.352Z,15.78
2019-05-06T07:24:13.081Z,14.28
2019-05-06T07:26:44.921Z,18.50
2019-05-06T07:29:21.628Z,16.48
2019-05-06T07:31:46.773Z,16.67
2019-05-06T07:34:17.334Z,20.10
2019-05-06T07:36:47.697Z,16.17
2019-05-06T07:39:17.921Z,17.02
2019-05-06T07:41:49.465Z,19.42
2019-05-06T07:44:22.429Z,22.43
2019-05-06T07:46:54.185Z,17.62
2019-05-06T07:49:24.768Z,19.45
2019-05-06T07:51:55.043Z,16.83
2019-05-06T07:54:25.537Z,16.57
2019-05-06T07:56:55.885Z,17.48
2019-05-06T07:59:26.118Z,16.33
2019-05-06T08:01:56.422Z,16.90
2019-05-06T08:04:26.714Z,14.10
2019-05-06T08:06:57.059Z,14.90
2019-05-06T08:09:27.297Z,18.23
2019-05-06T08:11:57.553Z,18.40
2019-05-06T08:14:29.259Z,18.70
2019-05-06T08:17:02.238Z,16.90
2019-05-06T08:19:33.659Z,19.85
2019-05-06T08:22:05.410Z,19.45
2019-05-06T08:24:36.362Z,21.33
2019-05-06T08:27:06.596Z,19.60
2019-05-06T08:29:36.983Z,18.00
2019-05-06T08:32:07.308Z,19.60
2019-05-06T08:34:37.817Z,16.62
2019-05-06T08:37:09.518Z,16.23
2019-05-06T08:39:43.217Z,21.95
2019-05-06T08:42:13.533Z,17.62
2019-05-06T08:44:43.831Z,19.00
2019-05-06T08:47:14.452Z,18.10
2019-05-06T08:49:49.185Z,18.65
2019-05-06T08:52:19.236Z,16.37
2019-05-06T08:54:52.561Z,20.00
2019-05-06T08:57:22.808Z,19.57
2019-05-06T08:59:53.789Z,17.90
2019-05-06T09:02:25.369Z,21.85
2019-05-06T09:04:55.682Z,20.30
2019-05-06T09:07:26.097Z,18.00
2019-05-06T09:09:56.340Z,18.05
2019-05-06T09:12:26.542Z,15.03
2019-05-06T09:14:56.913Z,16.80
2019-05-06T09:17:27.083Z,15.35
2019-05-06T09:19:57.292Z,19.15
2019-05-06T09:22:27.622Z,19.43
2019-05-06T09:24:57.832Z,22.20
2019-05-06T09:27:29.327Z,22.15
2019-05-06T09:30:03.025Z,22.17
2019-05-06T09:32:35.945Z,23.53
2019-05-06T09:35:07.474Z,21.13
2019-05-06T09:37:37.773Z,20.37
2019-05-06T09:40:12.568Z,18.92
2019-05-06T09:42:42.584Z,20.23
2019-05-06T09:45:13.737Z,26.42
2019-05-06T09:47:45.394Z,32.10
2019-05-06T09:50:17.583Z,38.23
2019-05-06T09:52:47.894Z,40.00
2019-05-06T09:55:22.033Z,36.17
2019-05-06T09:57:52.733Z,27.43
2019-05-06T10:00:23.705Z,26.73
2019-05-06T10:02:54.568Z,35.10
2019-05-06T10:05:24.848Z,68.75
2019-05-06T10:07:55.434Z,31.82
2019-05-06T10:10:26.636Z,31.65
2019-05-06T10:12:56.940Z,37.42
2019-05-06T10:15:27.616Z,27.03
2019-05-06T10:17:59.167Z,40.95
2019-05-06T10:20:29.522Z,21.73
2019-05-06T10:22:59.975Z,18.92
2019-05-06T10:25:30.679Z,14.28
2019-05-06T10:28:02.795Z,20.77
2019-05-06T10:30:33.346Z,20.10
2019-05-06T10:33:04.827Z,22.40
2019-05-06T10:35:35.073Z,22.93
2019-05-06T10:38:08.170Z,20.20
2019-05-06T10:40:57.344Z,16.85
2019-05-06T10:43:15.715Z,21.57
2019-05-06T10:45:46.110Z,16.90
2019-05-06T10:48:16.721Z,21.02
2019-05-06T10:50:48.338Z,18.30
2019-05-06T10:53:22.963Z,22.42
2019-05-06T10:55:53.730Z,20.23
2019-05-06T10:58:24.214Z,22.07
2019-05-06T11:00:56.425Z,19.42
2019-05-06T11:03:27.725Z,17.15
2019-05-06T11:05:58.126Z,20.48
2019-05-06T11:08:28.438Z,16.30
2019-05-06T11:11:14.012Z,18.15
2019-05-06T11:13:32.146Z,16.70
2019-05-06T11:16:03.442Z,17.50
2019-05-06T11:18:33.773Z,16.42
2019-05-06T11:21:04.109Z,15.38
2019-05-06T11:23:34.424Z,23.18
2019-05-06T11:26:04.777Z,21.73
2019-05-06T11:28:36.224Z,21.95
2019-05-06T11:31:09.254Z,25.30
2019-05-06T11:33:42.455Z,25.68
2019-05-06T11:36:15.221Z,25.80
2019-05-06T11:38:48.378Z,31.27
2019-05-06T11:41:17.648Z,22.85
2019-05-06T11:43:47.936Z,25.80
2019-05-06T11:46:18.234Z,23.02
2019-05-06T11:48:48.663Z,25.07
2019-05-06T11:51:20.218Z,38.80
2019-05-06T11:53:53.827Z,27.22
2019-05-06T11:56:23.028Z,27.45
2019-05-06T11:58:55.361Z,22.57
2019-05-06T12:01:26.908Z,24.47
2019-05-06T12:03:57.149Z,17.87
2019-05-06T12:06:27.659Z,23.35
2019-05-06T12:08:58.086Z,19.92
2019-05-06T12:11:28.338Z,17.63
2019-05-06T12:13:58.745Z,16.90
2019-05-06T12:16:28.863Z,17.48
2019-05-06T12:18:59.912Z,17.07
2019-05-06T12:21:32.761Z,19.37
2019-05-06T12:24:02.914Z,19.80
2019-05-06T12:26:33.712Z,14.40
2019-05-06T12:29:04.134Z,18.70
2019-05-06T12:31:34.548Z,21.47
2019-05-06T12:34:04.810Z,16.65
2019-05-06T12:36:35.299Z,15.70
2019-05-06T12:39:08.537Z,15.72
2019-05-06T12:41:42.884Z,17.07
2019-05-06T12:44:13.077Z,16.75
2019-05-06T12:46:44.721Z,17.70
2019-05-06T12:49:15.193Z,16.85
2019-05-06T12:51:45.283Z,17.70
2019-05-06T12:54:15.852Z,15.43
2019-05-06T12:56:46.496Z,16.93
2019-05-06T12:59:16.925Z,14.28
2019-05-06T13:01:47.417Z,17.80
2019-05-06T13:04:17.620Z,15.25
2019-05-06T13:06:48.058Z,15.70
2019-05-06T13:09:18.531Z,14.98
2019-05-06T13:11:48.908Z,14.87
2019-05-06T13:14:19.352Z,13.80
2019-05-06T13:16:49.801Z,14.38
2019-05-06T13:19:19.993Z,14.40
2019-05-06T13:21:50.461Z,11.68
2019-05-06T13:24:22.687Z,12.00
2019-05-06T13:26:52.760Z,10.50
2019-05-06T13:29:25.839Z,12.30
2019-05-06T13:31:56.084Z,13.83
2019-05-06T13:34:26.510Z,14.20
2019-05-06T13:36:56.972Z,14.95
2019-05-06T13:39:27.367Z,12.53
2019-05-06T13:41:57.810Z,11.38
2019-05-06T13:44:28.010Z,13.20
2019-05-06T13:46:58.352Z,9.35
2019-05-06T13:49:30.137Z,10.28
2019-05-06T13:52:04.204Z,12.25
2019-05-06T13:54:33.481Z,10.50
2019-05-06T13:57:03.732Z,9.38
2019-05-06T13:59:35.171Z,11.73
2019-05-06T14:02:08.154Z,10.15
2019-05-06T14:04:38.813Z,10.15
2019-05-06T14:07:09.793Z,12.13
2019-05-06T14:09:43.479Z,9.63
2019-05-06T14:12:12.847Z,10.03
2019-05-06T14:14:43.315Z,10.17
2019-05-06T14:17:13.876Z,9.28
2019-05-06T14:19:44.280Z,10.25
2019-05-06T14:22:14.466Z,10.75
2019-05-06T14:24:45.946Z,7.83
2019-05-06T14:27:17.480Z,9.13
2019-05-06T14:29:49.168Z,8.88
2019-05-06T14:32:19.278Z,8.38
2019-05-06T14:34:51.967Z,9.68
2019-05-06T14:37:22.581Z,9.43
2019-05-06T14:39:59.216Z,6.55
2019-05-06T14:42:26.045Z,10.95
2019-05-06T14:44:56.324Z,8.68
2019-05-06T14:47:27.995Z,8.60
2019-05-06T14:49:58.200Z,11.88
2019-05-06T14:52:28.436Z,13.25
2019-05-06T14:55:00.086Z,11.53
2019-05-06T14:57:32.291Z,23.87
2019-05-06T15:00:04.314Z,14.43
2019-05-06T15:02:34.698Z,14.07
2019-05-06T15:05:06.592Z,16.37
2019-05-06T15:07:36.940Z,13.05
2019-05-06T15:10:20.259Z,15.25
2019-05-06T15:12:42.450Z,17.17
2019-05-06T15:15:12.237Z,20.05
2019-05-06T15:17:43.170Z,20.37
2019-05-06T15:20:13.811Z,15.80
2019-05-06T15:22:44.301Z,28.23
2019-05-06T15:25:14.674Z,24.65
2019-05-06T15:27:44.871Z,16.75
2019-05-06T15:30:16.805Z,16.10
2019-05-06T15:32:46.985Z,13.20
2019-05-06T15:35:18.801Z,11.28
2019-05-06T15:37:53.139Z,14.80
2019-05-06T15:40:31.894Z,10.50
2019-05-06T15:42:53.845Z,14.97
2019-05-06T15:45:24.205Z,13.75
2019-05-06T15:47:54.546Z,12.78
2019-05-06T15:50:25.130Z,13.45
2019-05-06T15:52:55.340Z,18.12
2019-05-06T15:55:25.682Z,12.40
2019-05-06T15:57:55.941Z,15.75
2019-05-06T16:00:26.525Z,15.88
2019-05-06T16:02:56.891Z,14.40
2019-05-06T16:05:27.206Z,12.55
2019-05-06T16:07:57.519Z,13.75
2019-05-06T16:10:27.862Z,12.47
2019-05-06T16:12:58.098Z,12.15
2019-05-06T16:15:28.429Z,14.23
2019-05-06T16:17:58.727Z,12.00
2019-05-06T16:20:29.208Z,10.80
2019-05-06T16:23:00.626Z,13.83
2019-05-06T16:25:32.120Z,10.68
2019-05-06T16:28:02.824Z,11.57
2019-05-06T16:30:33.923Z,10.20
2019-05-06T16:33:04.486Z,10.63
2019-05-06T16:35:35.085Z,10.30
2019-05-06T16:38:05.565Z,12.03
2019-05-06T16:40:35.936Z,9.75
2019-05-06T16:43:06.977Z,9.77
2019-05-06T16:45:37.480Z,11.12
2019-05-06T16:48:07.907Z,13.20
2019-05-06T16:50:38.456Z,10.50
2019-05-06T16:53:08.745Z,8.58
2019-05-06T16:55:40.229Z,9.30
2019-05-06T16:58:11.922Z,9.17
2019-05-06T17:00:42.955Z,10.73
2019-05-06T17:03:14.572Z,12.28
2019-05-06T17:05:46.241Z,11.00
2019-05-06T17:08:16.568Z,12.18
2019-05-06T17:10:46.873Z,14.33
2019-05-06T17:13:16.932Z,11.30
2019-05-06T17:15:49.841Z,13.20
2019-05-06T17:18:19.130Z,10.13
2019-05-06T17:20:49.318Z,10.80
2019-05-06T17:23:19.856Z,12.63
2019-05-06T17:25:51.982Z,11.53
2019-05-06T17:28:22.733Z,12.18
2019-05-06T17:30:54.468Z,12.00
2019-05-06T17:33:26.012Z,11.63
2019-05-06T17:35:56.261Z,9.83
2019-05-06T17:38:27.753Z,11.25
2019-05-06T17:40:58.089Z,12.20
2019-05-06T17:43:28.640Z,12.87
2019-05-06T17:46:03.105Z,11.03
2019-05-06T17:48:33.219Z,11.93
2019-05-06T17:51:05.015Z,14.23
2019-05-06T17:53:35.298Z,12.37
2019-05-06T17:56:06.329Z,11.22
2019-05-06T17:58:36.669Z,10.85
2019-05-06T18:01:07.909Z,14.45
2019-05-06T18:03:38.178Z,13.10
2019-05-06T18:06:13.742Z,11.57
2019-05-06T18:08:40.140Z,12.00
2019-05-06T18:11:12.744Z,11.97
2019-05-06T18:13:42.172Z,10.73
2019-05-06T18:16:13.182Z,10.88
2019-05-06T18:18:43.817Z,11.30
2019-05-06T18:21:14.231Z,12.18
2019-05-06T18:23:44.644Z,12.82
2019-05-06T18:26:15.123Z,11.78
2019-05-06T18:28:45.351Z,11.43
2019-05-06T18:31:15.622Z,9.83
2019-05-06T18:33:45.799Z,12.07
2019-05-06T18:36:16.091Z,11.40
2019-05-06T18:38:46.253Z,13.45
2019-05-06T18:41:16.970Z,12.93
2019-05-06T18:43:47.281Z,12.63
2019-05-06T18:46:17.475Z,11.08
2019-05-06T18:48:47.654Z,11.60
2019-05-06T18:51:17.968Z,10.78
2019-05-06T18:53:48.479Z,13.72
2019-05-06T18:56:19.004Z,10.25
2019-05-06T18:58:49.419Z,12.80
2019-05-06T19:01:19.706Z,11.57
2019-05-06T19:03:52.538Z,13.78
2019-05-06T19:06:23.333Z,13.78
2019-05-06T19:08:55.096Z,11.15
2019-05-06T19:11:26.017Z,14.75
2019-05-06T19:13:56.409Z,13.43
2019-05-06T19:16:26.567Z,14.58
2019-05-06T19:18:56.916Z,13.75
2019-05-06T19:21:27.228Z,11.78
2019-05-06T19:23:59.196Z,13.22
2019-05-06T19:26:29.395Z,13.50
2019-05-06T19:28:59.555Z,12.28
2019-05-06T19:31:32.101Z,10.75
2019-05-06T19:34:03.247Z,11.43
2019-05-06T19:36:34.831Z,12.07
2019-05-06T19:39:06.773Z,12.35
2019-05-06T19:41:37.118Z,17.67
2019-05-06T19:44:07.416Z,17.85
2019-05-06T19:46:37.564Z,17.07
2019-05-06T19:49:08.149Z,19.95
2019-05-06T19:51:38.265Z,16.00
2019-05-06T19:54:08.502Z,16.40
2019-05-06T19:56:38.666Z,11.80
2019-05-06T19:59:09.123Z,13.48
2019-05-06T20:01:39.295Z,13.48
2019-05-06T20:04:09.815Z,12.63
2019-05-06T20:06:41.684Z,11.22
2019-05-06T20:09:13.833Z,13.50
2019-05-06T20:11:45.006Z,14.28
2019-05-06T20:14:15.218Z,13.13
2019-05-06T20:16:45.517Z,13.62
2019-05-06T20:19:28.094Z,17.10
2019-05-06T20:21:47.022Z,13.13
2019-05-06T20:24:17.362Z,14.43
2019-05-06T20:26:47.758Z,13.32
2019-05-06T20:29:18.011Z,13.95
2019-05-06T20:31:48.321Z,13.83
2019-05-06T20:34:18.530Z,13.93
2019-05-06T20:36:49.010Z,11.80
2019-05-06T20:39:19.519Z,12.90
2019-05-06T20:41:49.774Z,12.80
2019-05-06T20:44:20.002Z,12.78
2019-05-06T20:46:50.126Z,13.38
2019-05-06T20:49:20.998Z,13.18
2019-05-06T20:51:52.209Z,12.58
2019-05-06T20:54:23.679Z,12.63
2019-05-06T20:56:54.202Z,11.30
2019-05-06T20:59:24.719Z,13.58
2019-05-06T21:01:55.410Z,15.50
2019-05-06T21:04:25.763Z,14.65
2019-05-06T21:06:55.991Z,11.50
2019-05-06T21:09:26.440Z,14.68
2019-05-06T21:11:56.687Z,17.30
2019-05-06T21:14:27.191Z,13.05
2019-05-06T21:16:57.562Z,18.00
2019-05-06T21:19:28.601Z,17.32
2019-05-06T21:21:58.900Z,19.45
2019-05-06T21:24:29.243Z,17.27
2019-05-06T21:26:59.509Z,21.20
2019-05-06T21:29:29.811Z,20.50
2019-05-06T21:32:00.123Z,17.02
2019-05-06T21:34:32.669Z,17.40
2019-05-06T21:37:03.627Z,19.85
2019-05-06T21:39:34.142Z,19.37
2019-05-06T21:42:04.478Z,19.02
2019-05-06T21:44:34.668Z,16.30
2019-05-06T21:47:05.069Z,19.40
2019-05-06T21:49:35.490Z,17.30
2019-05-06T21:52:06.232Z,18.60
2019-05-06T21:54:36.631Z,17.07
2019-05-06T21:57:06.973Z,16.85
2019-05-06T21:59:37.307Z,15.60
2019-05-06T22:02:09.201Z,14.93
2019-05-06T22:04:39.479Z,15.38
2019-05-06T22:07:12.020Z,16.47
2019-05-06T22:09:43.057Z,15.38
2019-05-06T22:12:13.083Z,13.97
2019-05-06T22:14:43.386Z,14.03
2019-05-06T22:17:14.247Z,12.93
2019-05-06T22:19:44.328Z,15.85
2019-05-06T22:22:15.947Z,14.43
2019-05-06T22:24:47.397Z,13.90
2019-05-06T22:27:18.075Z,13.38
2019-05-06T22:29:48.656Z,12.37
2019-05-06T22:32:18.929Z,12.63
2019-05-06T22:34:49.541Z,15.70
2019-05-06T22:37:21.994Z,14.80
2019-05-06T22:39:52.831Z,14.00
2019-05-06T22:42:24.964Z,12.78
2019-05-06T22:44:54.632Z,13.28
2019-05-06T22:47:24.890Z,12.50
2019-05-06T22:49:55.110Z,16.25
2019-05-06T22:52:25.476Z,15.75
2019-05-06T22:54:55.836Z,15.83
2019-05-06T22:57:25.937Z,16.15
2019-05-06T22:59:56.463Z,15.70
2019-05-06T23:02:28.107Z,15.43
2019-05-06T23:04:59.704Z,12.70
2019-05-06T23:07:30.184Z,12.30
2019-05-06T23:10:03.274Z,13.28
2019-05-06T23:12:33.726Z,13.95
2019-05-06T23:15:03.907Z,14.07
2019-05-06T23:17:34.429Z,14.03
2019-05-06T23:20:06.161Z,15.43
2019-05-06T23:22:36.547Z,12.47
2019-05-06T23:25:07.902Z,15.55
2019-05-06T23:27:38.178Z,14.05
2019-05-06T23:30:09.027Z,12.78
2019-05-06T23:32:39.306Z,16.30
2019-05-06T23:35:09.849Z,12.55
2019-05-06T23:37:43.085Z,17.07
2019-05-06T23:40:17.367Z,13.00
2019-05-06T23:42:52.575Z,12.85
2019-05-06T23:45:25.858Z,15.13
2019-05-06T23:47:58.703Z,16.93
2019-05-06T23:50:31.996Z,14.80
2019-05-06T23:53:05.070Z,14.30
2019-05-06T23:55:38.064Z,14.93
2019-05-06T23:58:07.402Z,13.48
